UAL2026 KEWR-KTPA
Flight info
| Callsign | UAL2026 |
|---|---|
| Flight time | 2h 17m |
| Altitude | 36000 |
| Route | ELVAE NECCK WHITE Q409 PUPYY BAAMF DADES2 |
| Aircraft | B738/M-SDE2E3FGHIRWXY/LB1 |
Departure
| Time | 2026-04-26 11:01 |
|---|---|
| Airport | Newark Liberty International Airport (KEWR) |
Arrival
| Time | 2026-04-26 13:19 |
|---|---|
| Airport | Tampa International Airport (KTPA) |
| Time | Latitude | Longitude | Altitude | Speed | Heading |
|---|---|---|---|---|---|
| 2026-04-26 10:42 | 40.68439 | -74.18283 | 21 ft | 0 kts | 185° |
| 2026-04-26 10:52 | 40.68449 | -74.18281 | 21 ft | 4 kts | 180° |
| 2026-04-26 10:52 | 40.68475 | -74.18286 | 24 ft | 4 kts | 155° |
| 2026-04-26 10:52 | 40.68496 | -74.18306 | 23 ft | 4 kts | 124° |
| 2026-04-26 10:53 | 40.68505 | -74.18335 | 23 ft | 2 kts | 95° |
| 2026-04-26 10:53 | 40.68505 | -74.18336 | 23 ft | 0 kts | 95° |
| 2026-04-26 10:55 | 40.68505 | -74.18335 | 21 ft | 0 kts | 95° |
| 2026-04-26 10:55 | 40.68503 | -74.18295 | 21 ft | 9 kts | 95° |
| 2026-04-26 10:55 | 40.68483 | -74.18184 | 22 ft | 15 kts | 116° |
| 2026-04-26 10:55 | 40.68430 | -74.18071 | 22 ft | 14 kts | 117° |
| 2026-04-26 10:56 | 40.68389 | -74.17956 | 15 ft | 14 kts | 115° |
| 2026-04-26 10:56 | 40.68348 | -74.17846 | 21 ft | 13 kts | 116° |
| 2026-04-26 10:56 | 40.68294 | -74.17759 | 21 ft | 13 kts | 169° |
| 2026-04-26 10:56 | 40.68213 | -74.17797 | 21 ft | 12 kts | 206° |
| 2026-04-26 10:57 | 40.68137 | -74.17845 | 21 ft | 12 kts | 205° |
| 2026-04-26 10:57 | 40.68062 | -74.17892 | 21 ft | 12 kts | 205° |
| 2026-04-26 10:57 | 40.67989 | -74.17938 | 21 ft | 11 kts | 208° |
| 2026-04-26 10:57 | 40.67919 | -74.17984 | 21 ft | 11 kts | 205° |
| 2026-04-26 10:58 | 40.67850 | -74.18026 | 21 ft | 11 kts | 205° |
| 2026-04-26 10:58 | 40.67783 | -74.18069 | 21 ft | 10 kts | 206° |
| 2026-04-26 10:58 | 40.67719 | -74.18110 | 23 ft | 10 kts | 205° |
| 2026-04-26 10:58 | 40.67653 | -74.18116 | 21 ft | 10 kts | 152° |
| 2026-04-26 10:59 | 40.67605 | -74.18053 | 23 ft | 10 kts | 130° |
| 2026-04-26 10:59 | 40.67565 | -74.17984 | 23 ft | 9 kts | 117° |
| 2026-04-26 10:59 | 40.67586 | -74.17915 | 22 ft | 9 kts | 27° |
| 2026-04-26 10:59 | 40.67606 | -74.17903 | 21 ft | 0 kts | 26° |
| 2026-04-26 11:00 | 40.67660 | -74.17868 | 21 ft | 34 kts | 25° |
| 2026-04-26 11:00 | 40.68074 | -74.17605 | 20 ft | 96 kts | 26° |
| 2026-04-26 11:00 | 40.68833 | -74.17121 | 24 ft | 144 kts | 26° |
| 2026-04-26 11:00 | 40.69829 | -74.16492 | 170 ft | 173 kts | 26° |
| 2026-04-26 11:01 | 40.70965 | -74.15766 | 568 ft | 189 kts | 26° |
| 2026-04-26 11:01 | 40.72213 | -74.15163 | 1116 ft | 194 kts | 12° |
| 2026-04-26 11:01 | 40.73602 | -74.15268 | 1433 ft | 211 kts | 345° |
| 2026-04-26 11:01 | 40.74983 | -74.16237 | 1613 ft | 233 kts | 332° |
| 2026-04-26 11:02 | 40.76157 | -74.17843 | 1870 ft | 259 kts | 298° |
| 2026-04-26 11:02 | 40.76397 | -74.20230 | 2480 ft | 272 kts | 259° |
| 2026-04-26 11:02 | 40.75555 | -74.22431 | 3196 ft | 272 kts | 223° |
| 2026-04-26 11:02 | 40.73970 | -74.23614 | 3916 ft | 265 kts | 188° |
| 2026-04-26 11:03 | 40.72152 | -74.23523 | 4576 ft | 264 kts | 165° |
| 2026-04-26 11:03 | 40.70350 | -74.22939 | 5190 ft | 269 kts | 162° |
| 2026-04-26 11:03 | 40.68528 | -74.22273 | 5840 ft | 274 kts | 162° |
| 2026-04-26 11:03 | 40.66659 | -74.21685 | 6495 ft | 280 kts | 170° |
| 2026-04-26 11:04 | 40.64692 | -74.21610 | 7110 ft | 286 kts | 186° |
| 2026-04-26 11:04 | 40.62756 | -74.22154 | 7880 ft | 285 kts | 199° |
| 2026-04-26 11:04 | 40.60917 | -74.23130 | 8619 ft | 286 kts | 207° |
| 2026-04-26 11:04 | 40.59132 | -74.24317 | 9346 ft | 288 kts | 210° |
| 2026-04-26 11:05 | 40.57372 | -74.25572 | 10155 ft | 288 kts | 211° |
| 2026-04-26 11:05 | 40.55543 | -74.26796 | 10495 ft | 308 kts | 201° |
| 2026-04-26 11:05 | 40.53335 | -74.27120 | 10653 ft | 335 kts | 173° |
| 2026-04-26 11:05 | 40.51030 | -74.26212 | 10872 ft | 356 kts | 159° |
| 2026-04-26 11:06 | 40.48706 | -74.24934 | 11292 ft | 367 kts | 158° |
| 2026-04-26 11:06 | 40.47141 | -74.24065 | 11666 ft | 371 kts | 158° |
| 2026-04-26 11:06 | 40.43926 | -74.22345 | 12589 ft | 375 kts | 159° |
| 2026-04-26 11:06 | 40.41480 | -74.21091 | 13224 ft | 380 kts | 160° |
| 2026-04-26 11:07 | 40.38989 | -74.19847 | 13834 ft | 386 kts | 160° |
| 2026-04-26 11:07 | 40.36459 | -74.18597 | 14429 ft | 391 kts | 160° |
| 2026-04-26 11:07 | 40.33895 | -74.17367 | 15089 ft | 393 kts | 164° |
| 2026-04-26 11:07 | 40.31210 | -74.16692 | 15774 ft | 393 kts | 178° |
| 2026-04-26 11:08 | 40.28480 | -74.16767 | 16452 ft | 393 kts | 190° |
| 2026-04-26 11:08 | 40.25804 | -74.17472 | 17108 ft | 394 kts | 196° |
| 2026-04-26 11:08 | 40.23137 | -74.18309 | 17856 ft | 393 kts | 197° |
| 2026-04-26 11:08 | 40.20481 | -74.19151 | 18594 ft | 394 kts | 197° |
| 2026-04-26 11:09 | 40.17803 | -74.19985 | 19138 ft | 397 kts | 197° |
| 2026-04-26 11:09 | 40.15098 | -74.20811 | 19698 ft | 400 kts | 197° |
| 2026-04-26 11:09 | 40.12378 | -74.21628 | 20297 ft | 402 kts | 197° |
| 2026-04-26 11:09 | 40.09645 | -74.22442 | 20896 ft | 403 kts | 197° |
| 2026-04-26 11:10 | 40.06902 | -74.23257 | 21462 ft | 405 kts | 197° |
| 2026-04-26 11:10 | 40.04144 | -74.24077 | 22001 ft | 408 kts | 197° |
| 2026-04-26 11:10 | 40.01443 | -74.25140 | 22590 ft | 404 kts | 206° |
| 2026-04-26 11:10 | 39.98932 | -74.26746 | 23179 ft | 401 kts | 215° |
| 2026-04-26 11:11 | 39.96654 | -74.28826 | 23702 ft | 400 kts | 220° |
| 2026-04-26 11:11 | 39.94418 | -74.31008 | 24124 ft | 403 kts | 220° |
| 2026-04-26 11:11 | 39.92172 | -74.33199 | 24570 ft | 404 kts | 220° |
| 2026-04-26 11:11 | 39.89913 | -74.35380 | 25034 ft | 405 kts | 220° |
| 2026-04-26 11:12 | 39.87639 | -74.37556 | 25417 ft | 408 kts | 220° |
| 2026-04-26 11:12 | 39.85337 | -74.39748 | 25724 ft | 412 kts | 220° |
| 2026-04-26 11:12 | 39.83020 | -74.41947 | 26184 ft | 411 kts | 220° |
| 2026-04-26 11:12 | 39.80803 | -74.44251 | 26745 ft | 406 kts | 226° |
| 2026-04-26 11:13 | 39.78811 | -74.46844 | 27172 ft | 405 kts | 229° |
| 2026-04-26 11:13 | 39.76849 | -74.49491 | 27521 ft | 408 kts | 229° |
| 2026-04-26 11:13 | 39.74880 | -74.52159 | 27863 ft | 410 kts | 229° |
| 2026-04-26 11:13 | 39.72899 | -74.54830 | 28238 ft | 411 kts | 229° |
| 2026-04-26 11:14 | 39.70907 | -74.57497 | 28622 ft | 412 kts | 229° |
| 2026-04-26 11:14 | 39.68904 | -74.60164 | 28966 ft | 413 kts | 229° |
| 2026-04-26 11:14 | 39.66916 | -74.62801 | 29305 ft | 415 kts | 229° |
| 2026-04-26 11:14 | 39.65550 | -74.64609 | 29543 ft | 416 kts | 228° |
| 2026-04-26 11:15 | 39.62876 | -74.68140 | 30218 ft | 412 kts | 228° |
| 2026-04-26 11:15 | 39.60880 | -74.70770 | 30737 ft | 407 kts | 229° |
| 2026-04-26 11:15 | 39.58906 | -74.73370 | 31212 ft | 403 kts | 229° |
| 2026-04-26 11:15 | 39.56944 | -74.75953 | 31619 ft | 401 kts | 229° |
| 2026-04-26 11:16 | 39.54991 | -74.78524 | 32005 ft | 400 kts | 229° |
| 2026-04-26 11:16 | 39.53046 | -74.81081 | 32432 ft | 397 kts | 229° |
| 2026-04-26 11:16 | 39.51115 | -74.83618 | 32864 ft | 394 kts | 229° |
| 2026-04-26 11:16 | 39.49198 | -74.86134 | 33284 ft | 391 kts | 229° |
| 2026-04-26 11:17 | 39.47290 | -74.88637 | 33642 ft | 390 kts | 229° |
| 2026-04-26 11:17 | 39.45388 | -74.91130 | 33976 ft | 389 kts | 229° |
| 2026-04-26 11:17 | 39.43490 | -74.93616 | 34284 ft | 388 kts | 229° |
| 2026-04-26 11:17 | 39.41595 | -74.96096 | 34520 ft | 388 kts | 229° |
| 2026-04-26 11:18 | 39.39693 | -74.98585 | 34723 ft | 389 kts | 229° |
| 2026-04-26 11:18 | 39.38430 | -75.00235 | 34839 ft | 391 kts | 229° |
| 2026-04-26 11:18 | 39.36516 | -75.02736 | 35047 ft | 392 kts | 229° |
| 2026-04-26 11:18 | 39.34594 | -75.05244 | 35223 ft | 394 kts | 229° |
| 2026-04-26 11:19 | 39.32661 | -75.07764 | 35380 ft | 396 kts | 229° |
| 2026-04-26 11:19 | 39.30719 | -75.10292 | 35567 ft | 397 kts | 229° |
| 2026-04-26 11:19 | 39.28752 | -75.12798 | 35780 ft | 397 kts | 227° |
| 2026-04-26 11:19 | 39.26712 | -75.15213 | 35981 ft | 399 kts | 226° |
| 2026-04-26 11:20 | 39.22541 | -75.20005 | 36068 ft | 404 kts | 225° |
| 2026-04-26 11:20 | 39.18359 | -75.24835 | 36064 ft | 402 kts | 226° |
| 2026-04-26 11:21 | 39.14241 | -75.29628 | 36060 ft | 397 kts | 226° |
| 2026-04-26 11:21 | 39.10156 | -75.34390 | 36064 ft | 395 kts | 226° |
| 2026-04-26 11:22 | 39.06079 | -75.39131 | 36061 ft | 395 kts | 226° |
| 2026-04-26 11:22 | 39.01506 | -75.43103 | 36085 ft | 405 kts | 209° |
| 2026-04-26 11:23 | 38.95997 | -75.45045 | 36065 ft | 420 kts | 193° |
| 2026-04-26 11:23 | 38.90166 | -75.45798 | 36062 ft | 422 kts | 192° |
| 2026-04-26 11:24 | 38.84320 | -75.46553 | 36051 ft | 422 kts | 193° |
| 2026-04-26 11:24 | 38.78470 | -75.47363 | 36055 ft | 423 kts | 193° |
| 2026-04-26 11:25 | 38.72603 | -75.48186 | 36054 ft | 425 kts | 193° |
| 2026-04-26 11:25 | 38.66717 | -75.48989 | 36026 ft | 426 kts | 192° |
| 2026-04-26 11:26 | 38.60820 | -75.49781 | 36046 ft | 426 kts | 192° |
| 2026-04-26 11:26 | 38.54921 | -75.50574 | 36051 ft | 426 kts | 192° |
| 2026-04-26 11:27 | 38.49019 | -75.51369 | 36051 ft | 427 kts | 192° |
| 2026-04-26 11:27 | 38.43119 | -75.52163 | 36035 ft | 426 kts | 192° |
| 2026-04-26 11:28 | 38.37234 | -75.53007 | 36044 ft | 422 kts | 197° |
| 2026-04-26 11:28 | 38.31784 | -75.55391 | 36055 ft | 410 kts | 212° |
| 2026-04-26 11:29 | 38.27036 | -75.59283 | 36057 ft | 406 kts | 219° |
| 2026-04-26 11:29 | 38.22399 | -75.63382 | 36034 ft | 406 kts | 219° |
| 2026-04-26 11:30 | 38.18534 | -75.66775 | 36042 ft | 406 kts | 218° |
| 2026-04-26 11:30 | 38.13083 | -75.71523 | 36048 ft | 407 kts | 218° |
| 2026-04-26 11:31 | 38.08405 | -75.75581 | 36035 ft | 408 kts | 218° |
| 2026-04-26 11:31 | 38.03747 | -75.79614 | 36050 ft | 408 kts | 218° |
| 2026-04-26 11:32 | 37.99054 | -75.83672 | 36032 ft | 409 kts | 218° |
| 2026-04-26 11:32 | 37.94354 | -75.87728 | 36034 ft | 409 kts | 218° |
| 2026-04-26 11:33 | 37.89647 | -75.91785 | 36042 ft | 409 kts | 218° |
| 2026-04-26 11:33 | 37.84935 | -75.95840 | 36060 ft | 410 kts | 218° |
| 2026-04-26 11:34 | 37.80217 | -75.99893 | 36042 ft | 410 kts | 218° |
| 2026-04-26 11:34 | 37.75501 | -76.03939 | 36056 ft | 410 kts | 218° |
| 2026-04-26 11:35 | 37.70783 | -76.07981 | 36054 ft | 410 kts | 218° |
| 2026-04-26 11:35 | 37.66863 | -76.11335 | 36053 ft | 410 kts | 218° |
| 2026-04-26 11:36 | 37.61348 | -76.16044 | 36060 ft | 409 kts | 218° |
| 2026-04-26 11:36 | 37.56629 | -76.20073 | 36047 ft | 409 kts | 218° |
| 2026-04-26 11:37 | 37.51916 | -76.24099 | 36048 ft | 409 kts | 218° |
| 2026-04-26 11:37 | 37.47237 | -76.28090 | 36051 ft | 409 kts | 218° |
| 2026-04-26 11:38 | 37.42524 | -76.32104 | 36043 ft | 409 kts | 217° |
| 2026-04-26 11:38 | 37.37817 | -76.36107 | 36034 ft | 408 kts | 217° |
| 2026-04-26 11:39 | 37.33110 | -76.40103 | 36046 ft | 408 kts | 217° |
| 2026-04-26 11:39 | 37.28403 | -76.44093 | 36045 ft | 408 kts | 217° |
| 2026-04-26 11:40 | 37.23694 | -76.48079 | 36028 ft | 408 kts | 217° |
| 2026-04-26 11:40 | 37.18981 | -76.52062 | 36039 ft | 409 kts | 217° |
| 2026-04-26 11:42 | 37.00095 | -76.67962 | 36031 ft | 409 kts | 217° |
| 2026-04-26 11:43 | 36.95364 | -76.71930 | 36012 ft | 409 kts | 217° |
| 2026-04-26 11:43 | 36.90633 | -76.75892 | 36032 ft | 410 kts | 217° |
| 2026-04-26 11:44 | 36.85893 | -76.79855 | 36032 ft | 410 kts | 217° |
| 2026-04-26 11:44 | 36.81179 | -76.83791 | 36034 ft | 411 kts | 217° |
| 2026-04-26 11:45 | 36.76429 | -76.87751 | 36049 ft | 411 kts | 217° |
| 2026-04-26 11:45 | 36.71673 | -76.91710 | 36033 ft | 411 kts | 217° |
| 2026-04-26 11:46 | 36.66917 | -76.95663 | 36037 ft | 411 kts | 217° |
| 2026-04-26 11:46 | 36.62155 | -76.99614 | 36035 ft | 411 kts | 217° |
| 2026-04-26 11:47 | 36.57394 | -77.03559 | 36032 ft | 411 kts | 216° |
| 2026-04-26 11:47 | 36.52635 | -77.07497 | 35997 ft | 411 kts | 216° |
| 2026-04-26 11:48 | 36.47874 | -77.11431 | 36010 ft | 411 kts | 216° |
| 2026-04-26 11:48 | 36.43114 | -77.15358 | 36018 ft | 411 kts | 216° |
| 2026-04-26 11:49 | 36.38346 | -77.19286 | 36021 ft | 412 kts | 216° |
| 2026-04-26 11:49 | 36.33570 | -77.23215 | 36025 ft | 412 kts | 216° |
| 2026-04-26 11:50 | 36.28897 | -77.27314 | 36004 ft | 411 kts | 220° |
| 2026-04-26 11:50 | 36.24416 | -77.31702 | 36018 ft | 410 kts | 220° |
| 2026-04-26 11:51 | 36.19948 | -77.36110 | 36008 ft | 411 kts | 220° |
| 2026-04-26 11:51 | 36.15458 | -77.40499 | 35997 ft | 411 kts | 220° |
| 2026-04-26 11:52 | 36.11719 | -77.44132 | 35980 ft | 411 kts | 220° |
| 2026-04-26 11:52 | 36.06457 | -77.49229 | 35971 ft | 411 kts | 220° |
| 2026-04-26 11:53 | 36.01954 | -77.53582 | 35979 ft | 411 kts | 220° |
| 2026-04-26 11:54 | 35.95190 | -77.60110 | 35995 ft | 412 kts | 220° |
| 2026-04-26 11:54 | 35.90668 | -77.64466 | 35984 ft | 413 kts | 220° |
| 2026-04-26 11:55 | 35.86169 | -77.68795 | 35961 ft | 413 kts | 220° |
| 2026-04-26 11:55 | 35.81633 | -77.73151 | 35958 ft | 413 kts | 220° |
| 2026-04-26 11:56 | 35.77096 | -77.77502 | 35962 ft | 413 kts | 220° |
| 2026-04-26 11:56 | 35.72556 | -77.81850 | 35981 ft | 414 kts | 220° |
| 2026-04-26 11:57 | 35.68011 | -77.86197 | 35981 ft | 414 kts | 220° |
| 2026-04-26 11:57 | 35.63458 | -77.90544 | 35948 ft | 414 kts | 220° |
| 2026-04-26 11:58 | 35.58912 | -77.94878 | 35958 ft | 414 kts | 220° |
| 2026-04-26 11:58 | 35.54363 | -77.99209 | 35983 ft | 414 kts | 220° |
| 2026-04-26 11:59 | 35.49799 | -78.03548 | 35978 ft | 416 kts | 220° |
| 2026-04-26 11:59 | 35.45222 | -78.07894 | 35963 ft | 416 kts | 220° |
| 2026-04-26 12:00 | 35.40641 | -78.12235 | 35965 ft | 415 kts | 220° |
| 2026-04-26 12:00 | 35.36076 | -78.16556 | 35961 ft | 414 kts | 220° |
| 2026-04-26 12:01 | 35.31552 | -78.20834 | 35965 ft | 413 kts | 220° |
| 2026-04-26 12:01 | 35.27003 | -78.25126 | 35954 ft | 413 kts | 220° |
| 2026-04-26 12:02 | 35.22458 | -78.29407 | 35958 ft | 412 kts | 219° |
| 2026-04-26 12:02 | 35.17922 | -78.33675 | 35937 ft | 411 kts | 219° |
| 2026-04-26 12:03 | 35.13377 | -78.37947 | 35966 ft | 413 kts | 219° |
| 2026-04-26 12:03 | 35.08812 | -78.42231 | 35964 ft | 415 kts | 219° |
| 2026-04-26 12:04 | 35.04234 | -78.46522 | 35966 ft | 415 kts | 219° |
| 2026-04-26 12:04 | 34.99660 | -78.50803 | 35965 ft | 414 kts | 219° |
| 2026-04-26 12:05 | 34.95088 | -78.55075 | 35934 ft | 414 kts | 219° |
| 2026-04-26 12:05 | 34.90523 | -78.59335 | 35950 ft | 413 kts | 219° |
| 2026-04-26 12:06 | 34.86729 | -78.62872 | 35953 ft | 414 kts | 219° |
| 2026-04-26 12:06 | 34.82154 | -78.67130 | 35964 ft | 414 kts | 219° |
| 2026-04-26 12:07 | 34.77566 | -78.71394 | 35977 ft | 415 kts | 219° |
| 2026-04-26 12:07 | 34.72970 | -78.75660 | 35951 ft | 416 kts | 219° |
| 2026-04-26 12:08 | 34.68367 | -78.79926 | 35950 ft | 416 kts | 219° |
| 2026-04-26 12:08 | 34.63760 | -78.84190 | 35960 ft | 417 kts | 219° |
| 2026-04-26 12:09 | 34.59147 | -78.88453 | 35965 ft | 417 kts | 219° |
| 2026-04-26 12:09 | 34.54529 | -78.92717 | 35968 ft | 417 kts | 219° |
| 2026-04-26 12:10 | 34.49902 | -78.96981 | 35967 ft | 418 kts | 219° |
| 2026-04-26 12:10 | 34.45285 | -79.01247 | 35958 ft | 417 kts | 219° |
| 2026-04-26 12:11 | 34.40627 | -79.05447 | 35946 ft | 418 kts | 218° |
| 2026-04-26 12:11 | 34.35857 | -79.09481 | 35960 ft | 420 kts | 217° |
| 2026-04-26 12:12 | 34.31071 | -79.13547 | 35980 ft | 421 kts | 218° |
| 2026-04-26 12:12 | 34.26268 | -79.17658 | 35957 ft | 423 kts | 219° |
| 2026-04-26 12:13 | 34.21672 | -79.22046 | 35963 ft | 420 kts | 222° |
| 2026-04-26 12:13 | 34.17174 | -79.26533 | 35969 ft | 419 kts | 222° |
| 2026-04-26 12:14 | 34.12674 | -79.30992 | 35967 ft | 418 kts | 221° |
| 2026-04-26 12:14 | 34.08169 | -79.35421 | 35974 ft | 418 kts | 221° |
| 2026-04-26 12:15 | 34.03907 | -79.39596 | 35968 ft | 417 kts | 221° |
| 2026-04-26 12:15 | 33.99402 | -79.44002 | 35970 ft | 417 kts | 223° |
| 2026-04-26 12:16 | 33.94882 | -79.48418 | 35949 ft | 419 kts | 223° |
| 2026-04-26 12:16 | 33.90344 | -79.52848 | 35952 ft | 421 kts | 223° |
| 2026-04-26 12:17 | 33.85784 | -79.57282 | 35938 ft | 422 kts | 222° |
| 2026-04-26 12:17 | 33.81143 | -79.61637 | 35938 ft | 424 kts | 221° |
| 2026-04-26 12:18 | 33.76504 | -79.65937 | 35916 ft | 424 kts | 221° |
| 2026-04-26 12:18 | 33.71832 | -79.70274 | 35959 ft | 425 kts | 221° |
| 2026-04-26 12:19 | 33.67159 | -79.74618 | 35962 ft | 425 kts | 221° |
| 2026-04-26 12:19 | 33.62476 | -79.78970 | 35960 ft | 426 kts | 221° |
| 2026-04-26 12:20 | 33.57785 | -79.83324 | 35952 ft | 427 kts | 222° |
| 2026-04-26 12:20 | 33.53086 | -79.87679 | 35924 ft | 427 kts | 222° |
| 2026-04-26 12:21 | 33.48378 | -79.92037 | 35931 ft | 428 kts | 222° |
| 2026-04-26 12:21 | 33.43663 | -79.96395 | 35943 ft | 429 kts | 222° |
| 2026-04-26 12:22 | 33.38932 | -80.00761 | 35935 ft | 430 kts | 222° |
| 2026-04-26 12:22 | 33.34189 | -80.05131 | 35936 ft | 431 kts | 222° |
| 2026-04-26 12:23 | 33.29442 | -80.09499 | 35942 ft | 431 kts | 222° |
| 2026-04-26 12:23 | 33.24685 | -80.13871 | 35940 ft | 431 kts | 222° |
| 2026-04-26 12:24 | 33.19923 | -80.18241 | 35936 ft | 432 kts | 223° |
| 2026-04-26 12:24 | 33.15146 | -80.22619 | 35924 ft | 434 kts | 223° |
| 2026-04-26 12:25 | 33.07956 | -80.29196 | 35926 ft | 435 kts | 223° |
| 2026-04-26 12:25 | 33.03145 | -80.33589 | 35926 ft | 436 kts | 223° |
| 2026-04-26 12:26 | 32.98326 | -80.37984 | 35940 ft | 437 kts | 223° |
| 2026-04-26 12:26 | 32.93479 | -80.42399 | 35914 ft | 439 kts | 223° |
| 2026-04-26 12:27 | 32.88627 | -80.46809 | 35916 ft | 438 kts | 223° |
| 2026-04-26 12:27 | 32.83783 | -80.51207 | 35917 ft | 438 kts | 223° |
| 2026-04-26 12:28 | 32.78948 | -80.55592 | 35878 ft | 437 kts | 224° |
| 2026-04-26 12:28 | 32.74120 | -80.59967 | 35903 ft | 437 kts | 224° |
| 2026-04-26 12:29 | 32.69328 | -80.64318 | 35931 ft | 436 kts | 224° |
| 2026-04-26 12:30 | 32.62162 | -80.71005 | 35932 ft | 438 kts | 225° |
| 2026-04-26 12:30 | 32.57371 | -80.75477 | 35938 ft | 439 kts | 225° |
| 2026-04-26 12:31 | 32.50148 | -80.82187 | 35932 ft | 441 kts | 225° |
| 2026-04-26 12:31 | 32.45312 | -80.86670 | 35936 ft | 442 kts | 225° |
| 2026-04-26 12:32 | 32.40459 | -80.91162 | 35921 ft | 443 kts | 225° |
| 2026-04-26 12:33 | 32.33151 | -80.97916 | 35933 ft | 445 kts | 225° |
| 2026-04-26 12:33 | 32.28242 | -81.02408 | 35915 ft | 449 kts | 222° |
| 2026-04-26 12:34 | 32.22820 | -81.06213 | 35936 ft | 456 kts | 216° |
| 2026-04-26 12:34 | 32.17239 | -81.09806 | 35945 ft | 457 kts | 216° |
| 2026-04-26 12:35 | 32.11686 | -81.13455 | 35944 ft | 457 kts | 216° |
| 2026-04-26 12:35 | 32.06153 | -81.17142 | 35898 ft | 457 kts | 217° |
| 2026-04-26 12:36 | 32.00616 | -81.20831 | 35897 ft | 457 kts | 216° |
| 2026-04-26 12:36 | 31.95220 | -81.24710 | 35884 ft | 448 kts | 226° |
| 2026-04-26 12:37 | 31.90642 | -81.29526 | 35892 ft | 444 kts | 230° |
| 2026-04-26 12:37 | 31.86094 | -81.34438 | 35922 ft | 444 kts | 230° |
| 2026-04-26 12:38 | 31.81510 | -81.39324 | 35937 ft | 445 kts | 230° |
| 2026-04-26 12:38 | 31.76900 | -81.44189 | 35916 ft | 445 kts | 229° |
| 2026-04-26 12:39 | 31.72282 | -81.49047 | 35927 ft | 446 kts | 229° |
| 2026-04-26 12:39 | 31.67659 | -81.53904 | 35943 ft | 446 kts | 229° |
| 2026-04-26 12:40 | 31.63029 | -81.58765 | 35968 ft | 447 kts | 229° |
| 2026-04-26 12:40 | 31.58388 | -81.63629 | 35968 ft | 448 kts | 229° |
| 2026-04-26 12:41 | 31.53740 | -81.68495 | 35967 ft | 448 kts | 230° |
| 2026-04-26 12:41 | 31.49091 | -81.73354 | 35972 ft | 448 kts | 230° |
| 2026-04-26 12:42 | 31.44438 | -81.78213 | 35980 ft | 448 kts | 230° |
| 2026-04-26 12:42 | 31.39606 | -81.82886 | 35962 ft | 459 kts | 220° |
| 2026-04-26 12:43 | 31.34059 | -81.86669 | 35976 ft | 463 kts | 217° |
| 2026-04-26 12:43 | 31.28451 | -81.90368 | 35974 ft | 463 kts | 218° |
| 2026-04-26 12:44 | 31.22867 | -81.94104 | 35980 ft | 462 kts | 218° |
| 2026-04-26 12:44 | 31.17305 | -81.97863 | 35974 ft | 462 kts | 218° |
| 2026-04-26 12:45 | 31.11785 | -82.01599 | 35995 ft | 462 kts | 218° |
| 2026-04-26 12:45 | 31.06228 | -82.05353 | 35994 ft | 462 kts | 218° |
| 2026-04-26 12:46 | 31.00671 | -82.09101 | 36014 ft | 461 kts | 218° |
| 2026-04-26 12:46 | 30.95116 | -82.12841 | 36005 ft | 461 kts | 218° |
| 2026-04-26 12:47 | 30.89563 | -82.16575 | 36010 ft | 461 kts | 218° |
| 2026-04-26 12:47 | 30.84012 | -82.20303 | 36010 ft | 460 kts | 218° |
| 2026-04-26 12:48 | 30.78461 | -82.24026 | 36009 ft | 460 kts | 218° |
| 2026-04-26 12:48 | 30.72913 | -82.27743 | 35986 ft | 460 kts | 218° |
| 2026-04-26 12:49 | 30.67312 | -82.31364 | 35979 ft | 467 kts | 209° |
| 2026-04-26 12:49 | 30.64110 | -82.32273 | 36014 ft | 481 kts | 192° |
| 2026-04-26 12:49 | 30.60776 | -82.32669 | 35999 ft | 483 kts | 191° |
| 2026-04-26 12:50 | 30.54075 | -82.33382 | 35997 ft | 483 kts | 191° |
| 2026-04-26 12:50 | 30.47385 | -82.34161 | 35996 ft | 483 kts | 192° |
| 2026-04-26 12:51 | 30.40699 | -82.34995 | 35998 ft | 483 kts | 192° |
| 2026-04-26 12:51 | 30.34006 | -82.35840 | 35991 ft | 484 kts | 192° |
| 2026-04-26 12:51 | 30.30648 | -82.36263 | 35643 ft | 489 kts | 192° |
| 2026-04-26 12:52 | 30.28404 | -82.36546 | 35270 ft | 490 kts | 192° |
| 2026-04-26 12:52 | 30.25022 | -82.36967 | 34711 ft | 488 kts | 192° |
| 2026-04-26 12:52 | 30.21649 | -82.37386 | 34241 ft | 485 kts | 192° |
| 2026-04-26 12:52 | 30.18306 | -82.37801 | 33793 ft | 481 kts | 192° |
| 2026-04-26 12:53 | 30.14967 | -82.38064 | 33285 ft | 482 kts | 186° |
| 2026-04-26 12:53 | 30.11626 | -82.37973 | 32882 ft | 479 kts | 182° |
| 2026-04-26 12:53 | 30.08312 | -82.37724 | 32435 ft | 476 kts | 180° |
| 2026-04-26 12:53 | 30.05023 | -82.37436 | 32007 ft | 472 kts | 180° |
| 2026-04-26 12:54 | 30.01764 | -82.37166 | 31582 ft | 467 kts | 181° |
| 2026-04-26 12:54 | 29.98535 | -82.36933 | 31166 ft | 463 kts | 181° |
| 2026-04-26 12:54 | 29.95330 | -82.36729 | 30756 ft | 460 kts | 181° |
| 2026-04-26 12:54 | 29.92147 | -82.36546 | 30342 ft | 456 kts | 182° |
| 2026-04-26 12:55 | 29.88989 | -82.36372 | 29904 ft | 453 kts | 181° |
| 2026-04-26 12:55 | 29.85856 | -82.36202 | 29438 ft | 449 kts | 181° |
| 2026-04-26 12:55 | 29.82750 | -82.36033 | 29003 ft | 445 kts | 181° |
| 2026-04-26 12:55 | 29.79668 | -82.35864 | 28573 ft | 442 kts | 181° |
| 2026-04-26 12:56 | 29.76608 | -82.35696 | 28143 ft | 439 kts | 181° |
| 2026-04-26 12:56 | 29.73570 | -82.35528 | 27716 ft | 435 kts | 181° |
| 2026-04-26 12:56 | 29.70559 | -82.35361 | 27299 ft | 432 kts | 181° |
| 2026-04-26 12:56 | 29.67571 | -82.35196 | 26891 ft | 428 kts | 181° |
| 2026-04-26 12:57 | 29.64604 | -82.35032 | 26480 ft | 426 kts | 181° |
| 2026-04-26 12:57 | 29.61654 | -82.34869 | 26063 ft | 423 kts | 181° |
| 2026-04-26 12:57 | 29.58727 | -82.34707 | 25633 ft | 419 kts | 181° |
| 2026-04-26 12:58 | 29.52984 | -82.34389 | 24818 ft | 413 kts | 181° |
| 2026-04-26 12:58 | 29.50126 | -82.34232 | 24418 ft | 410 kts | 181° |
| 2026-04-26 12:58 | 29.47285 | -82.34076 | 24026 ft | 407 kts | 180° |
| 2026-04-26 12:58 | 29.44459 | -82.33920 | 23616 ft | 406 kts | 180° |
| 2026-04-26 12:59 | 29.41648 | -82.33765 | 23160 ft | 403 kts | 180° |
| 2026-04-26 12:59 | 29.38858 | -82.33576 | 22740 ft | 400 kts | 178° |
| 2026-04-26 12:59 | 29.36095 | -82.33277 | 22355 ft | 397 kts | 177° |
| 2026-04-26 12:59 | 29.33361 | -82.32934 | 21954 ft | 394 kts | 176° |
| 2026-04-26 13:00 | 29.30649 | -82.32583 | 21552 ft | 391 kts | 176° |
| 2026-04-26 13:00 | 29.27955 | -82.32239 | 21168 ft | 388 kts | 176° |
| 2026-04-26 13:00 | 29.25284 | -82.31905 | 20787 ft | 385 kts | 177° |
| 2026-04-26 13:00 | 29.22630 | -82.31579 | 20407 ft | 382 kts | 177° |
| 2026-04-26 13:01 | 29.19994 | -82.31261 | 20031 ft | 380 kts | 177° |
| 2026-04-26 13:01 | 29.17374 | -82.30947 | 19658 ft | 377 kts | 177° |
| 2026-04-26 13:01 | 29.14769 | -82.30637 | 19274 ft | 376 kts | 177° |
| 2026-04-26 13:01 | 29.12177 | -82.30328 | 18895 ft | 374 kts | 177° |
| 2026-04-26 13:02 | 29.09589 | -82.30021 | 18501 ft | 373 kts | 177° |
| 2026-04-26 13:02 | 29.07013 | -82.29715 | 18091 ft | 372 kts | 177° |
| 2026-04-26 13:02 | 29.04450 | -82.29411 | 17669 ft | 369 kts | 177° |
| 2026-04-26 13:02 | 29.01902 | -82.29108 | 17281 ft | 366 kts | 177° |
| 2026-04-26 13:03 | 28.99377 | -82.28808 | 16912 ft | 363 kts | 177° |
| 2026-04-26 13:03 | 28.96870 | -82.28511 | 16544 ft | 361 kts | 176° |
| 2026-04-26 13:03 | 28.94383 | -82.28216 | 16182 ft | 358 kts | 176° |
| 2026-04-26 13:03 | 28.91913 | -82.27923 | 15814 ft | 356 kts | 176° |
| 2026-04-26 13:04 | 28.89461 | -82.27632 | 15450 ft | 353 kts | 176° |
| 2026-04-26 13:04 | 28.87020 | -82.27343 | 15090 ft | 351 kts | 176° |
| 2026-04-26 13:04 | 28.84596 | -82.27057 | 14737 ft | 349 kts | 176° |
| 2026-04-26 13:04 | 28.82183 | -82.26771 | 14389 ft | 348 kts | 176° |
| 2026-04-26 13:05 | 28.79782 | -82.26487 | 14032 ft | 346 kts | 176° |
| 2026-04-26 13:05 | 28.77392 | -82.26205 | 13650 ft | 345 kts | 176° |
| 2026-04-26 13:05 | 28.75009 | -82.25923 | 13255 ft | 343 kts | 176° |
| 2026-04-26 13:05 | 28.72641 | -82.25716 | 12867 ft | 340 kts | 181° |
| 2026-04-26 13:06 | 28.70286 | -82.25686 | 12493 ft | 337 kts | 183° |
| 2026-04-26 13:06 | 28.67949 | -82.25682 | 12133 ft | 335 kts | 182° |
| 2026-04-26 13:06 | 28.65622 | -82.25665 | 11797 ft | 334 kts | 182° |
| 2026-04-26 13:06 | 28.63303 | -82.25636 | 11416 ft | 333 kts | 182° |
| 2026-04-26 13:07 | 28.60997 | -82.25595 | 11091 ft | 330 kts | 182° |
| 2026-04-26 13:07 | 28.58710 | -82.25549 | 10754 ft | 327 kts | 182° |
| 2026-04-26 13:07 | 28.56444 | -82.25505 | 10448 ft | 324 kts | 182° |
| 2026-04-26 13:07 | 28.54222 | -82.25461 | 10329 ft | 315 kts | 182° |
| 2026-04-26 13:08 | 28.52055 | -82.25420 | 10182 ft | 307 kts | 182° |
| 2026-04-26 13:08 | 28.49941 | -82.25390 | 10059 ft | 300 kts | 182° |
| 2026-04-26 13:08 | 28.47871 | -82.25364 | 9951 ft | 293 kts | 182° |
| 2026-04-26 13:08 | 28.45841 | -82.25339 | 9545 ft | 296 kts | 182° |
| 2026-04-26 13:09 | 28.43795 | -82.25313 | 9243 ft | 294 kts | 182° |
| 2026-04-26 13:09 | 28.41748 | -82.25288 | 8922 ft | 293 kts | 182° |
| 2026-04-26 13:09 | 28.39717 | -82.25262 | 8631 ft | 291 kts | 182° |
| 2026-04-26 13:09 | 28.37697 | -82.25245 | 8343 ft | 289 kts | 185° |
| 2026-04-26 13:10 | 28.35798 | -82.25790 | 8037 ft | 280 kts | 211° |
| 2026-04-26 13:10 | 28.34236 | -82.27061 | 7786 ft | 274 kts | 223° |
| 2026-04-26 13:10 | 28.32793 | -82.28464 | 7499 ft | 272 kts | 223° |
| 2026-04-26 13:10 | 28.31358 | -82.29860 | 7215 ft | 271 kts | 223° |
| 2026-04-26 13:11 | 28.30198 | -82.31497 | 6907 ft | 266 kts | 247° |
| 2026-04-26 13:11 | 28.29680 | -82.33489 | 6654 ft | 263 kts | 261° |
| 2026-04-26 13:11 | 28.29440 | -82.35541 | 6375 ft | 262 kts | 263° |
| 2026-04-26 13:11 | 28.29232 | -82.37578 | 6181 ft | 257 kts | 263° |
| 2026-04-26 13:12 | 28.29020 | -82.39560 | 6049 ft | 250 kts | 263° |
| 2026-04-26 13:12 | 28.28672 | -82.41475 | 5753 ft | 250 kts | 245° |
| 2026-04-26 13:12 | 28.27565 | -82.42974 | 5521 ft | 250 kts | 221° |
| 2026-04-26 13:12 | 28.26123 | -82.44083 | 5250 ft | 251 kts | 213° |
| 2026-04-26 13:13 | 28.24622 | -82.45094 | 4973 ft | 251 kts | 213° |
| 2026-04-26 13:13 | 28.23113 | -82.46097 | 4691 ft | 251 kts | 212° |
| 2026-04-26 13:13 | 28.21610 | -82.47107 | 4402 ft | 250 kts | 213° |
| 2026-04-26 13:13 | 28.20135 | -82.48109 | 4106 ft | 244 kts | 213° |
| 2026-04-26 13:14 | 28.18707 | -82.49087 | 3836 ft | 236 kts | 213° |
| 2026-04-26 13:14 | 28.17333 | -82.50031 | 3585 ft | 226 kts | 213° |
| 2026-04-26 13:14 | 28.16020 | -82.50934 | 3320 ft | 216 kts | 213° |
| 2026-04-26 13:14 | 28.14765 | -82.51797 | 3064 ft | 206 kts | 212° |
| 2026-04-26 13:15 | 28.13444 | -82.52308 | 2811 ft | 202 kts | 184° |
| 2026-04-26 13:15 | 28.12057 | -82.52319 | 2581 ft | 198 kts | 185° |
| 2026-04-26 13:15 | 28.10693 | -82.52399 | 2320 ft | 193 kts | 185° |
| 2026-04-26 13:15 | 28.09828 | -82.52438 | 2160 ft | 184 kts | 185° |
| 2026-04-26 13:16 | 28.08203 | -82.52495 | 1857 ft | 165 kts | 184° |
| 2026-04-26 13:16 | 28.07125 | -82.52532 | 1696 ft | 148 kts | 184° |
| 2026-04-26 13:16 | 28.06136 | -82.52566 | 1483 ft | 139 kts | 185° |
| 2026-04-26 13:16 | 28.05180 | -82.52599 | 1308 ft | 138 kts | 184° |
| 2026-04-26 13:17 | 28.03230 | -82.52667 | 940 ft | 139 kts | 184° |
| 2026-04-26 13:17 | 28.02276 | -82.52701 | 784 ft | 138 kts | 184° |
| 2026-04-26 13:18 | 28.00341 | -82.52764 | 415 ft | 141 kts | 183° |
| 2026-04-26 13:18 | 27.99393 | -82.52799 | 219 ft | 132 kts | 182° |
| 2026-04-26 13:18 | 27.97726 | -82.52858 | 38 ft | 86 kts | 182° |
| 2026-04-26 13:19 | 27.97321 | -82.52871 | 37 ft | 38 kts | 182° |
| 2026-04-26 13:19 | 27.97129 | -82.52879 | 36 ft | 22 kts | 181° |
| 2026-04-26 13:19 | 27.96982 | -82.52887 | 35 ft | 20 kts | 201° |
| 2026-04-26 13:19 | 27.97007 | -82.53002 | 37 ft | 20 kts | 350° |
| 2026-04-26 13:20 | 27.97138 | -82.53000 | 38 ft | 17 kts | 1° |
| 2026-04-26 13:20 | 27.97256 | -82.52995 | 40 ft | 16 kts | 0° |
| 2026-04-26 13:20 | 27.97358 | -82.53002 | 41 ft | 12 kts | 329° |
| 2026-04-26 13:20 | 27.97394 | -82.53071 | 42 ft | 10 kts | 308° |
| 2026-04-26 13:21 | 27.97433 | -82.53117 | 41 ft | 7 kts | 315° |
| 2026-04-26 13:21 | 27.97456 | -82.53140 | 42 ft | 6 kts | 318° |
| 2026-04-26 13:21 | 27.97481 | -82.53165 | 42 ft | 0 kts | 319° |
| 2026-04-26 13:21 | 27.97482 | -82.53167 | 42 ft | 0 kts | 322° |